sensor_id;sensor_type;location;lat;lon;timestamp;P1;durP1;ratioP1;P2;durP2;ratioP2
44440;SDS011;30146;52.268;20.944;2022-09-09T00:00:44;10.50;;;5.50;;
44440;SDS011;30146;52.268;20.944;2022-09-09T00:03:24;15.10;;;5.50;;
44440;SDS011;30146;52.268;20.944;2022-09-09T00:06:02;10.00;;;6.30;;
44440;SDS011;30146;52.268;20.944;2022-09-09T00:08:49;11.30;;;6.40;;
44440;SDS011;30146;52.268;20.944;2022-09-09T00:11:30;10.60;;;6.40;;
44440;SDS011;30146;52.268;20.944;2022-09-09T00:14:11;14.80;;;6.40;;
44440;SDS011;30146;52.268;20.944;2022-09-09T00:16:49;9.20;;;5.80;;
44440;SDS011;30146;52.268;20.944;2022-09-09T00:19:26;12.00;;;6.40;;
44440;SDS011;30146;52.268;20.944;2022-09-09T00:22:06;15.00;;;6.80;;
44440;SDS011;30146;52.268;20.944;2022-09-09T00:24:45;15.20;;;6.40;;
44440;SDS011;30146;52.268;20.944;2022-09-09T00:27:21;11.30;;;6.30;;
44440;SDS011;30146;52.268;20.944;2022-09-09T00:29:58;16.40;;;6.20;;
44440;SDS011;30146;52.268;20.944;2022-09-09T00:32:41;19.50;;;7.20;;
44440;SDS011;30146;52.268;20.944;2022-09-09T00:35:16;16.60;;;8.10;;
44440;SDS011;30146;52.268;20.944;2022-09-09T00:37:52;12.40;;;6.60;;
44440;SDS011;30146;52.268;20.944;2022-09-09T00:40:26;19.00;;;7.30;;
44440;SDS011;30146;52.268;20.944;2022-09-09T00:43:08;15.10;;;7.10;;
44440;SDS011;30146;52.268;20.944;2022-09-09T00:45:56;13.50;;;6.50;;
44440;SDS011;30146;52.268;20.944;2022-09-09T00:48:40;14.30;;;7.00;;
44440;SDS011;30146;52.268;20.944;2022-09-09T00:51:23;11.20;;;6.60;;
44440;SDS011;30146;52.268;20.944;2022-09-09T00:57:00;13.60;;;7.80;;
44440;SDS011;30146;52.268;20.944;2022-09-09T00:59:45;11.70;;;6.90;;
44440;SDS011;30146;52.268;20.944;2022-09-09T01:02:21;17.60;;;7.50;;
44440;SDS011;30146;52.268;20.944;2022-09-09T01:05:00;14.40;;;7.20;;
44440;SDS011;30146;52.268;20.944;2022-09-09T01:07:36;14.60;;;7.50;;
44440;SDS011;30146;52.268;20.944;2022-09-09T01:10:10;18.20;;;8.20;;
44440;SDS011;30146;52.268;20.944;2022-09-09T01:12:50;12.40;;;7.30;;
44440;SDS011;30146;52.268;20.944;2022-09-09T01:15:27;17.70;;;7.30;;
44440;SDS011;30146;52.268;20.944;2022-09-09T01:18:02;10.40;;;7.50;;
44440;SDS011;30146;52.268;20.944;2022-09-09T01:20:43;15.90;;;7.90;;
44440;SDS011;30146;52.268;20.944;2022-09-09T01:23:37;13.70;;;7.80;;
44440;SDS011;30146;52.268;20.944;2022-09-09T01:26:23;14.30;;;7.90;;
44440;SDS011;30146;52.268;20.944;2022-09-09T01:29:01;16.10;;;7.90;;
44440;SDS011;30146;52.268;20.944;2022-09-09T01:31:39;13.80;;;7.70;;
44440;SDS011;30146;52.268;20.944;2022-09-09T01:34:12;13.60;;;7.00;;
44440;SDS011;30146;52.268;20.944;2022-09-09T01:36:46;11.30;;;7.50;;
44440;SDS011;30146;52.268;20.944;2022-09-09T01:39:22;13.20;;;7.40;;
44440;SDS011;30146;52.268;20.944;2022-09-09T01:42:03;18.30;;;7.80;;
44440;SDS011;30146;52.268;20.944;2022-09-09T01:44:37;15.20;;;7.90;;
44440;SDS011;30146;52.268;20.944;2022-09-09T01:47:08;13.40;;;8.10;;
44440;SDS011;30146;52.268;20.944;2022-09-09T01:49:53;12.30;;;7.60;;
44440;SDS011;30146;52.268;20.944;2022-09-09T01:52:27;20.30;;;8.60;;
44440;SDS011;30146;52.268;20.944;2022-09-09T01:54:59;13.80;;;8.00;;
44440;SDS011;30146;52.268;20.944;2022-09-09T01:57:37;16.20;;;7.40;;
44440;SDS011;30146;52.268;20.944;2022-09-09T02:00:14;16.10;;;7.70;;
44440;SDS011;30146;52.268;20.944;2022-09-09T02:02:51;17.30;;;8.30;;
44440;SDS011;30146;52.268;20.944;2022-09-09T02:05:37;12.30;;;7.40;;
44440;SDS011;30146;52.268;20.944;2022-09-09T02:08:20;16.60;;;8.20;;
44440;SDS011;30146;52.268;20.944;2022-09-09T02:11:03;14.20;;;8.40;;
44440;SDS011;30146;52.268;20.944;2022-09-09T02:14:04;19.70;;;7.70;;
44440;SDS011;30146;52.268;20.944;2022-09-09T02:16:44;16.10;;;8.40;;
44440;SDS011;30146;52.268;20.944;2022-09-09T02:19:23;16.90;;;9.20;;
44440;SDS011;30146;52.268;20.944;2022-09-09T02:22:03;21.10;;;8.60;;
44440;SDS011;30146;52.268;20.944;2022-09-09T02:24:36;24.30;;;8.10;;
44440;SDS011;30146;52.268;20.944;2022-09-09T02:27:15;13.90;;;7.80;;
44440;SDS011;30146;52.268;20.944;2022-09-09T02:29:47;17.80;;;8.60;;
44440;SDS011;30146;52.268;20.944;2022-09-09T02:32:30;17.10;;;9.60;;
44440;SDS011;30146;52.268;20.944;2022-09-09T02:35:06;20.40;;;9.00;;
44440;SDS011;30146;52.268;20.944;2022-09-09T02:37:42;16.80;;;8.60;;
44440;SDS011;30146;52.268;20.944;2022-09-09T02:40:15;15.90;;;8.30;;
44440;SDS011;30146;52.268;20.944;2022-09-09T02:42:49;17.10;;;9.90;;
44440;SDS011;30146;52.268;20.944;2022-09-09T02:45:23;17.50;;;8.70;;
44440;SDS011;30146;52.268;20.944;2022-09-09T02:48:01;18.00;;;8.70;;
44440;SDS011;30146;52.268;20.944;2022-09-09T02:50:39;14.10;;;8.60;;
44440;SDS011;30146;52.268;20.944;2022-09-09T02:53:18;13.60;;;8.80;;
44440;SDS011;30146;52.268;20.944;2022-09-09T02:55:54;17.60;;;9.30;;
44440;SDS011;30146;52.268;20.944;2022-09-09T02:58:32;19.50;;;9.00;;
44440;SDS011;30146;52.268;20.944;2022-09-09T03:01:05;20.50;;;9.70;;
44440;SDS011;30146;52.268;20.944;2022-09-09T03:03:36;18.30;;;9.00;;
44440;SDS011;30146;52.268;20.944;2022-09-09T03:06:12;13.80;;;8.70;;
44440;SDS011;30146;52.268;20.944;2022-09-09T03:08:46;16.60;;;9.20;;
44440;SDS011;30146;52.268;20.944;2022-09-09T03:11:22;19.40;;;8.30;;
44440;SDS011;30146;52.268;20.944;2022-09-09T03:13:53;17.80;;;9.30;;
44440;SDS011;30146;52.268;20.944;2022-09-09T03:16:25;13.80;;;9.40;;
44440;SDS011;30146;52.268;20.944;2022-09-09T03:18:57;15.90;;;9.20;;
44440;SDS011;30146;52.268;20.944;2022-09-09T03:21:28;17.20;;;9.20;;
44440;SDS011;30146;52.268;20.944;2022-09-09T03:24:00;18.50;;;9.80;;
44440;SDS011;30146;52.268;20.944;2022-09-09T03:26:32;15.40;;;8.50;;
44440;SDS011;30146;52.268;20.944;2022-09-09T03:29:03;14.30;;;8.40;;
44440;SDS011;30146;52.268;20.944;2022-09-09T03:31:35;13.10;;;9.00;;
44440;SDS011;30146;52.268;20.944;2022-09-09T03:34:07;12.90;;;8.60;;
44440;SDS011;30146;52.268;20.944;2022-09-09T03:36:38;12.60;;;8.50;;
44440;SDS011;30146;52.268;20.944;2022-09-09T03:39:09;17.60;;;8.00;;
44440;SDS011;30146;52.268;20.944;2022-09-09T03:41:41;15.00;;;8.00;;
44440;SDS011;30146;52.268;20.944;2022-09-09T03:44:15;12.30;;;7.50;;
44440;SDS011;30146;52.268;20.944;2022-09-09T03:46:47;16.50;;;8.30;;
44440;SDS011;30146;52.268;20.944;2022-09-09T03:49:18;11.20;;;8.00;;
44440;SDS011;30146;52.268;20.944;2022-09-09T03:51:50;15.30;;;7.30;;
44440;SDS011;30146;52.268;20.944;2022-09-09T03:54:22;12.30;;;8.10;;
44440;SDS011;30146;52.268;20.944;2022-09-09T03:56:53;12.60;;;7.90;;
44440;SDS011;30146;52.268;20.944;2022-09-09T03:59:24;14.40;;;8.70;;
44440;SDS011;30146;52.268;20.944;2022-09-09T04:01:55;10.90;;;8.10;;
44440;SDS011;30146;52.268;20.944;2022-09-09T04:04:27;15.60;;;7.90;;
44440;SDS011;30146;52.268;20.944;2022-09-09T04:06:58;13.10;;;6.90;;
44440;SDS011;30146;52.268;20.944;2022-09-09T04:09:30;12.00;;;7.50;;
44440;SDS011;30146;52.268;20.944;2022-09-09T04:12:01;14.90;;;7.10;;
44440;SDS011;30146;52.268;20.944;2022-09-09T04:14:34;11.10;;;6.80;;
44440;SDS011;30146;52.268;20.944;2022-09-09T04:17:06;12.80;;;7.00;;
44440;SDS011;30146;52.268;20.944;2022-09-09T04:19:37;13.20;;;7.30;;
44440;SDS011;30146;52.268;20.944;2022-09-09T04:22:10;9.90;;;6.80;;
44440;SDS011;30146;52.268;20.944;2022-09-09T04:24:41;14.70;;;7.30;;
44440;SDS011;30146;52.268;20.944;2022-09-09T04:27:17;10.10;;;5.80;;
44440;SDS011;30146;52.268;20.944;2022-09-09T04:29:48;14.40;;;7.70;;
44440;SDS011;30146;52.268;20.944;2022-09-09T04:32:19;12.60;;;6.90;;
44440;SDS011;30146;52.268;20.944;2022-09-09T04:34:50;8.90;;;6.40;;
44440;SDS011;30146;52.268;20.944;2022-09-09T04:37:22;9.10;;;5.80;;
44440;SDS011;30146;52.268;20.944;2022-09-09T04:39:53;10.00;;;6.40;;
44440;SDS011;30146;52.268;20.944;2022-09-09T04:42:25;9.30;;;6.40;;
44440;SDS011;30146;52.268;20.944;2022-09-09T04:44:56;17.50;;;6.00;;
44440;SDS011;30146;52.268;20.944;2022-09-09T04:47:27;8.10;;;6.50;;
44440;SDS011;30146;52.268;20.944;2022-09-09T04:50:00;8.80;;;5.50;;
44440;SDS011;30146;52.268;20.944;2022-09-09T04:52:34;8.70;;;5.70;;
44440;SDS011;30146;52.268;20.944;2022-09-09T04:55:07;7.60;;;5.30;;
44440;SDS011;30146;52.268;20.944;2022-09-09T04:57:41;8.40;;;5.70;;
44440;SDS011;30146;52.268;20.944;2022-09-09T05:00:14;10.70;;;6.90;;
44440;SDS011;30146;52.268;20.944;2022-09-09T05:02:47;7.80;;;5.70;;
44440;SDS011;30146;52.268;20.944;2022-09-09T05:05:19;9.10;;;6.00;;
44440;SDS011;30146;52.268;20.944;2022-09-09T05:10:24;9.70;;;5.80;;
44440;SDS011;30146;52.268;20.944;2022-09-09T05:12:55;8.80;;;6.10;;
44440;SDS011;30146;52.268;20.944;2022-09-09T05:15:28;10.50;;;6.20;;
44440;SDS011;30146;52.268;20.944;2022-09-09T05:18:00;8.50;;;5.90;;
44440;SDS011;30146;52.268;20.944;2022-09-09T05:20:33;7.80;;;6.00;;
44440;SDS011;30146;52.268;20.944;2022-09-09T05:23:04;10.10;;;5.90;;
44440;SDS011;30146;52.268;20.944;2022-09-09T05:25:38;8.30;;;5.40;;
44440;SDS011;30146;52.268;20.944;2022-09-09T05:28:09;7.70;;;5.60;;
44440;SDS011;30146;52.268;20.944;2022-09-09T05:30:41;9.10;;;5.60;;
44440;SDS011;30146;52.268;20.944;2022-09-09T05:33:12;8.10;;;5.30;;
44440;SDS011;30146;52.268;20.944;2022-09-09T05:35:45;7.20;;;5.20;;
44440;SDS011;30146;52.268;20.944;2022-09-09T05:38:17;7.70;;;5.80;;
44440;SDS011;30146;52.268;20.944;2022-09-09T05:40:54;16.00;;;11.10;;
44440;SDS011;30146;52.268;20.944;2022-09-09T05:43:25;9.40;;;6.20;;
44440;SDS011;30146;52.268;20.944;2022-09-09T05:46:01;21.50;;;13.40;;
44440;SDS011;30146;52.268;20.944;2022-09-09T05:48:34;11.00;;;7.60;;
44440;SDS011;30146;52.268;20.944;2022-09-09T05:51:10;9.70;;;7.10;;
44440;SDS011;30146;52.268;20.944;2022-09-09T05:53:44;7.80;;;6.10;;
44440;SDS011;30146;52.268;20.944;2022-09-09T05:56:17;7.50;;;5.20;;
44440;SDS011;30146;52.268;20.944;2022-09-09T05:58:50;9.10;;;6.70;;
44440;SDS011;30146;52.268;20.944;2022-09-09T06:01:23;10.60;;;5.60;;
44440;SDS011;30146;52.268;20.944;2022-09-09T06:03:57;11.60;;;6.50;;
44440;SDS011;30146;52.268;20.944;2022-09-09T06:06:30;7.60;;;5.90;;
44440;SDS011;30146;52.268;20.944;2022-09-09T06:09:07;8.60;;;5.40;;
44440;SDS011;30146;52.268;20.944;2022-09-09T06:11:41;6.10;;;4.30;;
44440;SDS011;30146;52.268;20.944;2022-09-09T06:14:14;9.90;;;5.60;;
44440;SDS011;30146;52.268;20.944;2022-09-09T06:16:47;6.10;;;5.20;;
44440;SDS011;30146;52.268;20.944;2022-09-09T06:19:25;5.60;;;4.70;;
44440;SDS011;30146;52.268;20.944;2022-09-09T06:21:57;7.60;;;5.00;;
44440;SDS011;30146;52.268;20.944;2022-09-09T06:24:30;10.40;;;6.10;;
44440;SDS011;30146;52.268;20.944;2022-09-09T06:27:02;5.80;;;4.60;;
44440;SDS011;30146;52.268;20.944;2022-09-09T06:29:35;6.40;;;4.60;;
44440;SDS011;30146;52.268;20.944;2022-09-09T06:32:06;8.20;;;5.30;;
44440;SDS011;30146;52.268;20.944;2022-09-09T06:34:38;8.20;;;4.80;;
44440;SDS011;30146;52.268;20.944;2022-09-09T06:37:09;8.10;;;5.40;;
44440;SDS011;30146;52.268;20.944;2022-09-09T06:39:46;8.50;;;5.60;;
44440;SDS011;30146;52.268;20.944;2022-09-09T06:42:17;9.70;;;5.30;;
44440;SDS011;30146;52.268;20.944;2022-09-09T06:45:07;8.20;;;6.00;;
44440;SDS011;30146;52.268;20.944;2022-09-09T06:47:46;6.70;;;5.40;;
44440;SDS011;30146;52.268;20.944;2022-09-09T06:50:19;10.20;;;5.70;;
44440;SDS011;30146;52.268;20.944;2022-09-09T06:52:50;10.50;;;5.30;;
44440;SDS011;30146;52.268;20.944;2022-09-09T06:55:22;8.40;;;6.00;;
44440;SDS011;30146;52.268;20.944;2022-09-09T06:57:54;8.00;;;5.70;;
44440;SDS011;30146;52.268;20.944;2022-09-09T07:00:25;9.40;;;5.10;;
44440;SDS011;30146;52.268;20.944;2022-09-09T07:02:56;7.40;;;6.00;;
44440;SDS011;30146;52.268;20.944;2022-09-09T07:05:29;7.60;;;6.10;;
44440;SDS011;30146;52.268;20.944;2022-09-09T07:08:01;13.80;;;7.10;;
44440;SDS011;30146;52.268;20.944;2022-09-09T07:10:35;7.80;;;5.80;;
44440;SDS011;30146;52.268;20.944;2022-09-09T07:13:07;13.90;;;7.30;;
44440;SDS011;30146;52.268;20.944;2022-09-09T07:15:38;7.90;;;6.70;;
44440;SDS011;30146;52.268;20.944;2022-09-09T07:20:43;7.60;;;5.80;;
44440;SDS011;30146;52.268;20.944;2022-09-09T07:23:25;10.40;;;7.60;;
44440;SDS011;30146;52.268;20.944;2022-09-09T07:26:06;12.30;;;8.20;;
44440;SDS011;30146;52.268;20.944;2022-09-09T07:28:41;9.90;;;7.00;;
44440;SDS011;30146;52.268;20.944;2022-09-09T07:31:15;12.50;;;7.60;;
44440;SDS011;30146;52.268;20.944;2022-09-09T07:33:50;13.90;;;7.60;;
44440;SDS011;30146;52.268;20.944;2022-09-09T07:36:22;11.40;;;7.40;;
44440;SDS011;30146;52.268;20.944;2022-09-09T07:39:04;11.20;;;7.70;;
44440;SDS011;30146;52.268;20.944;2022-09-09T07:41:37;14.40;;;8.50;;
44440;SDS011;30146;52.268;20.944;2022-09-09T07:44:10;11.50;;;8.10;;
44440;SDS011;30146;52.268;20.944;2022-09-09T07:46:44;14.00;;;9.50;;
44440;SDS011;30146;52.268;20.944;2022-09-09T07:49:19;12.70;;;8.80;;
44440;SDS011;30146;52.268;20.944;2022-09-09T07:51:59;15.30;;;8.30;;
44440;SDS011;30146;52.268;20.944;2022-09-09T07:54:31;11.70;;;9.70;;
44440;SDS011;30146;52.268;20.944;2022-09-09T07:57:05;12.70;;;8.40;;
44440;SDS011;30146;52.268;20.944;2022-09-09T07:59:38;13.50;;;8.90;;
44440;SDS011;30146;52.268;20.944;2022-09-09T08:02:09;11.60;;;9.00;;
44440;SDS011;30146;52.268;20.944;2022-09-09T08:04:40;13.70;;;8.90;;
44440;SDS011;30146;52.268;20.944;2022-09-09T08:07:14;12.50;;;8.20;;
44440;SDS011;30146;52.268;20.944;2022-09-09T08:09:51;13.60;;;8.90;;
44440;SDS011;30146;52.268;20.944;2022-09-09T08:12:27;14.50;;;9.40;;
44440;SDS011;30146;52.268;20.944;2022-09-09T08:14:58;13.90;;;10.00;;
44440;SDS011;30146;52.268;20.944;2022-09-09T08:17:31;23.10;;;9.40;;
44440;SDS011;30146;52.268;20.944;2022-09-09T08:20:05;37.70;;;12.00;;
44440;SDS011;30146;52.268;20.944;2022-09-09T08:22:37;17.50;;;8.50;;
44440;SDS011;30146;52.268;20.944;2022-09-09T08:25:08;24.10;;;9.50;;
44440;SDS011;30146;52.268;20.944;2022-09-09T08:27:40;16.40;;;10.10;;
44440;SDS011;30146;52.268;20.944;2022-09-09T08:30:13;20.00;;;9.60;;
44440;SDS011;30146;52.268;20.944;2022-09-09T08:32:47;14.80;;;9.00;;
44440;SDS011;30146;52.268;20.944;2022-09-09T08:35:21;17.30;;;10.50;;
44440;SDS011;30146;52.268;20.944;2022-09-09T08:37:56;14.10;;;10.20;;
44440;SDS011;30146;52.268;20.944;2022-09-09T08:40:28;161.70;;;22.60;;
44440;SDS011;30146;52.268;20.944;2022-09-09T08:43:08;15.40;;;9.10;;
44440;SDS011;30146;52.268;20.944;2022-09-09T08:45:41;30.10;;;11.20;;
44440;SDS011;30146;52.268;20.944;2022-09-09T08:48:36;41.30;;;12.60;;
44440;SDS011;30146;52.268;20.944;2022-09-09T08:51:14;18.10;;;10.30;;
44440;SDS011;30146;52.268;20.944;2022-09-09T08:53:47;15.50;;;9.90;;
44440;SDS011;30146;52.268;20.944;2022-09-09T08:56:26;23.00;;;11.10;;
44440;SDS011;30146;52.268;20.944;2022-09-09T08:59:00;24.40;;;11.70;;
44440;SDS011;30146;52.268;20.944;2022-09-09T09:01:41;19.30;;;11.00;;
44440;SDS011;30146;52.268;20.944;2022-09-09T09:04:29;20.70;;;11.60;;
44440;SDS011;30146;52.268;20.944;2022-09-09T09:07:23;17.90;;;11.20;;
44440;SDS011;30146;52.268;20.944;2022-09-09T09:10:09;19.90;;;11.80;;
44440;SDS011;30146;52.268;20.944;2022-09-09T09:13:09;19.80;;;11.70;;
44440;SDS011;30146;52.268;20.944;2022-09-09T09:15:46;21.40;;;14.00;;
44440;SDS011;30146;52.268;20.944;2022-09-09T09:18:21;33.10;;;13.30;;
44440;SDS011;30146;52.268;20.944;2022-09-09T09:20:56;18.30;;;10.80;;
44440;SDS011;30146;52.268;20.944;2022-09-09T09:23:35;19.20;;;12.50;;
44440;SDS011;30146;52.268;20.944;2022-09-09T09:26:12;17.30;;;12.60;;
44440;SDS011;30146;52.268;20.944;2022-09-09T09:28:44;22.30;;;12.30;;
44440;SDS011;30146;52.268;20.944;2022-09-09T09:31:18;25.10;;;12.10;;
44440;SDS011;30146;52.268;20.944;2022-09-09T09:33:55;15.00;;;11.30;;
44440;SDS011;30146;52.268;20.944;2022-09-09T09:36:34;26.50;;;12.50;;
44440;SDS011;30146;52.268;20.944;2022-09-09T09:39:10;28.50;;;12.70;;
44440;SDS011;30146;52.268;20.944;2022-09-09T09:42:12;26.30;;;13.00;;
44440;SDS011;30146;52.268;20.944;2022-09-09T09:44:51;24.00;;;12.90;;
44440;SDS011;30146;52.268;20.944;2022-09-09T09:47:22;23.60;;;13.60;;
44440;SDS011;30146;52.268;20.944;2022-09-09T09:50:18;21.80;;;13.80;;
44440;SDS011;30146;52.268;20.944;2022-09-09T09:52:55;36.20;;;14.40;;
44440;SDS011;30146;52.268;20.944;2022-09-09T09:55:28;22.80;;;14.10;;
44440;SDS011;30146;52.268;20.944;2022-09-09T09:58:04;32.50;;;14.20;;
44440;SDS011;30146;52.268;20.944;2022-09-09T10:00:49;20.30;;;12.80;;
44440;SDS011;30146;52.268;20.944;2022-09-09T10:03:25;21.60;;;14.50;;
44440;SDS011;30146;52.268;20.944;2022-09-09T10:05:58;24.40;;;14.90;;
44440;SDS011;30146;52.268;20.944;2022-09-09T10:08:32;25.00;;;14.20;;
44440;SDS011;30146;52.268;20.944;2022-09-09T10:11:21;23.80;;;13.90;;
44440;SDS011;30146;52.268;20.944;2022-09-09T10:14:05;24.10;;;16.10;;
44440;SDS011;30146;52.268;20.944;2022-09-09T10:16:50;26.60;;;14.80;;
44440;SDS011;30146;52.268;20.944;2022-09-09T10:19:31;24.90;;;14.60;;
44440;SDS011;30146;52.268;20.944;2022-09-09T10:22:07;27.10;;;16.00;;
44440;SDS011;30146;52.268;20.944;2022-09-09T10:24:52;24.10;;;15.60;;
44440;SDS011;30146;52.268;20.944;2022-09-09T10:27:44;28.70;;;15.90;;
44440;SDS011;30146;52.268;20.944;2022-09-09T10:30:33;30.60;;;13.30;;
44440;SDS011;30146;52.268;20.944;2022-09-09T10:33:19;24.90;;;14.70;;
44440;SDS011;30146;52.268;20.944;2022-09-09T10:36:01;27.70;;;16.40;;
44440;SDS011;30146;52.268;20.944;2022-09-09T10:38:41;28.10;;;16.60;;
44440;SDS011;30146;52.268;20.944;2022-09-09T10:41:17;34.30;;;17.60;;
44440;SDS011;30146;52.268;20.944;2022-09-09T10:44:02;27.40;;;17.30;;
44440;SDS011;30146;52.268;20.944;2022-09-09T10:46:50;27.50;;;16.70;;
44440;SDS011;30146;52.268;20.944;2022-09-09T10:49:41;27.80;;;17.20;;
44440;SDS011;30146;52.268;20.944;2022-09-09T10:52:28;31.20;;;16.30;;
44440;SDS011;30146;52.268;20.944;2022-09-09T10:55:11;51.80;;;18.10;;
44440;SDS011;30146;52.268;20.944;2022-09-09T10:57:46;33.30;;;17.40;;
44440;SDS011;30146;52.268;20.944;2022-09-09T11:00:20;26.40;;;16.60;;
44440;SDS011;30146;52.268;20.944;2022-09-09T11:02:53;24.10;;;15.30;;
44440;SDS011;30146;52.268;20.944;2022-09-09T11:08:02;49.70;;;19.50;;
44440;SDS011;30146;52.268;20.944;2022-09-09T11:10:41;32.00;;;19.20;;
44440;SDS011;30146;52.268;20.944;2022-09-09T11:13:17;40.70;;;19.00;;
44440;SDS011;30146;52.268;20.944;2022-09-09T11:15:55;114.00;;;31.60;;
44440;SDS011;30146;52.268;20.944;2022-09-09T11:18:30;48.90;;;20.30;;
44440;SDS011;30146;52.268;20.944;2022-09-09T11:21:05;35.90;;;21.10;;
44440;SDS011;30146;52.268;20.944;2022-09-09T11:23:45;37.00;;;21.20;;
44440;SDS011;30146;52.268;20.944;2022-09-09T11:26:24;42.90;;;21.60;;
44440;SDS011;30146;52.268;20.944;2022-09-09T11:32:09;34.10;;;20.60;;
44440;SDS011;30146;52.268;20.944;2022-09-09T11:35:01;30.90;;;16.70;;
44440;SDS011;30146;52.268;20.944;2022-09-09T11:37:48;33.10;;;19.80;;
44440;SDS011;30146;52.268;20.944;2022-09-09T11:40:34;49.50;;;23.50;;
44440;SDS011;30146;52.268;20.944;2022-09-09T11:43:05;43.50;;;23.30;;
44440;SDS011;30146;52.268;20.944;2022-09-09T11:45:41;52.30;;;22.90;;
44440;SDS011;30146;52.268;20.944;2022-09-09T11:48:28;40.90;;;22.90;;
44440;SDS011;30146;52.268;20.944;2022-09-09T11:51:06;68.30;;;27.20;;
44440;SDS011;30146;52.268;20.944;2022-09-09T11:53:51;69.00;;;22.60;;
44440;SDS011;30146;52.268;20.944;2022-09-09T11:56:27;36.70;;;22.50;;
44440;SDS011;30146;52.268;20.944;2022-09-09T11:59:01;51.40;;;23.80;;
44440;SDS011;30146;52.268;20.944;2022-09-09T12:01:37;40.60;;;23.00;;
44440;SDS011;30146;52.268;20.944;2022-09-09T12:04:14;39.80;;;23.90;;
44440;SDS011;30146;52.268;20.944;2022-09-09T12:06:58;45.40;;;24.00;;
44440;SDS011;30146;52.268;20.944;2022-09-09T12:09:39;46.80;;;24.30;;
44440;SDS011;30146;52.268;20.944;2022-09-09T12:12:23;39.80;;;23.30;;
44440;SDS011;30146;52.268;20.944;2022-09-09T12:15:00;48.90;;;22.80;;
44440;SDS011;30146;52.268;20.944;2022-09-09T12:17:49;43.30;;;22.50;;
44440;SDS011;30146;52.268;20.944;2022-09-09T12:20:22;40.90;;;21.80;;
44440;SDS011;30146;52.268;20.944;2022-09-09T12:23:03;43.40;;;24.30;;
44440;SDS011;30146;52.268;20.944;2022-09-09T12:25:54;40.40;;;24.00;;
44440;SDS011;30146;52.268;20.944;2022-09-09T12:28:37;44.50;;;23.10;;
44440;SDS011;30146;52.268;20.944;2022-09-09T12:31:16;39.70;;;24.50;;
44440;SDS011;30146;52.268;20.944;2022-09-09T12:33:50;45.20;;;22.90;;
44440;SDS011;30146;52.268;20.944;2022-09-09T12:36:22;53.30;;;23.30;;
44440;SDS011;30146;52.268;20.944;2022-09-09T12:38:59;39.20;;;23.10;;
44440;SDS011;30146;52.268;20.944;2022-09-09T12:41:53;41.30;;;25.00;;
44440;SDS011;30146;52.268;20.944;2022-09-09T12:44:25;46.00;;;23.20;;
44440;SDS011;30146;52.268;20.944;2022-09-09T12:46:57;62.80;;;25.50;;
44440;SDS011;30146;52.268;20.944;2022-09-09T12:49:31;55.00;;;25.10;;
44440;SDS011;30146;52.268;20.944;2022-09-09T12:54:37;46.60;;;23.30;;
44440;SDS011;30146;52.268;20.944;2022-09-09T12:57:15;46.20;;;24.80;;
44440;SDS011;30146;52.268;20.944;2022-09-09T12:59:46;44.60;;;24.50;;
44440;SDS011;30146;52.268;20.944;2022-09-09T13:02:18;43.60;;;23.80;;
44440;SDS011;30146;52.268;20.944;2022-09-09T13:04:52;51.00;;;25.90;;
44440;SDS011;30146;52.268;20.944;2022-09-09T13:07:23;44.20;;;25.10;;
44440;SDS011;30146;52.268;20.944;2022-09-09T13:09:54;43.30;;;25.20;;
44440;SDS011;30146;52.268;20.944;2022-09-09T13:12:26;43.80;;;26.10;;
44440;SDS011;30146;52.268;20.944;2022-09-09T13:14:57;50.70;;;25.00;;
44440;SDS011;30146;52.268;20.944;2022-09-09T13:17:29;50.20;;;25.40;;
44440;SDS011;30146;52.268;20.944;2022-09-09T13:20:01;50.30;;;26.30;;
44440;SDS011;30146;52.268;20.944;2022-09-09T13:22:33;39.80;;;22.50;;
44440;SDS011;30146;52.268;20.944;2022-09-09T13:25:17;54.50;;;26.40;;
44440;SDS011;30146;52.268;20.944;2022-09-09T13:27:54;48.80;;;26.90;;
44440;SDS011;30146;52.268;20.944;2022-09-09T13:30:29;44.90;;;25.80;;
44440;SDS011;30146;52.268;20.944;2022-09-09T13:33:18;44.30;;;26.70;;
44440;SDS011;30146;52.268;20.944;2022-09-09T13:35:53;50.40;;;26.10;;
44440;SDS011;30146;52.268;20.944;2022-09-09T13:38:25;55.00;;;27.80;;
44440;SDS011;30146;52.268;20.944;2022-09-09T13:41:00;44.20;;;24.70;;
44440;SDS011;30146;52.268;20.944;2022-09-09T13:43:34;43.40;;;26.80;;
44440;SDS011;30146;52.268;20.944;2022-09-09T13:46:21;46.70;;;25.90;;
44440;SDS011;30146;52.268;20.944;2022-09-09T13:48:59;43.40;;;25.20;;
44440;SDS011;30146;52.268;20.944;2022-09-09T13:51:35;48.90;;;27.70;;
44440;SDS011;30146;52.268;20.944;2022-09-09T13:54:08;42.90;;;22.90;;
44440;SDS011;30146;52.268;20.944;2022-09-09T13:56:41;46.00;;;24.70;;
44440;SDS011;30146;52.268;20.944;2022-09-09T13:59:13;50.70;;;26.70;;
44440;SDS011;30146;52.268;20.944;2022-09-09T14:01:47;52.30;;;27.50;;
44440;SDS011;30146;52.268;20.944;2022-09-09T14:04:20;48.40;;;25.20;;
44440;SDS011;30146;52.268;20.944;2022-09-09T14:06:51;49.70;;;25.80;;
44440;SDS011;30146;52.268;20.944;2022-09-09T14:09:22;64.10;;;27.00;;
44440;SDS011;30146;52.268;20.944;2022-09-09T14:11:53;55.40;;;26.90;;
44440;SDS011;30146;52.268;20.944;2022-09-09T14:14:24;55.80;;;26.10;;
44440;SDS011;30146;52.268;20.944;2022-09-09T14:16:56;53.00;;;26.00;;
44440;SDS011;30146;52.268;20.944;2022-09-09T14:19:34;68.80;;;26.20;;
44440;SDS011;30146;52.268;20.944;2022-09-09T14:22:06;61.30;;;26.20;;
44440;SDS011;30146;52.268;20.944;2022-09-09T14:24:38;59.80;;;25.70;;
44440;SDS011;30146;52.268;20.944;2022-09-09T14:27:09;51.30;;;24.40;;
44440;SDS011;30146;52.268;20.944;2022-09-09T14:29:40;44.10;;;24.10;;
44440;SDS011;30146;52.268;20.944;2022-09-09T14:32:12;47.70;;;22.90;;
44440;SDS011;30146;52.268;20.944;2022-09-09T14:34:43;49.70;;;22.50;;
44440;SDS011;30146;52.268;20.944;2022-09-09T14:37:17;45.30;;;23.00;;
44440;SDS011;30146;52.268;20.944;2022-09-09T14:39:49;48.00;;;24.20;;
44440;SDS011;30146;52.268;20.944;2022-09-09T14:42:20;41.20;;;22.70;;
44440;SDS011;30146;52.268;20.944;2022-09-09T14:44:51;42.40;;;21.60;;
44440;SDS011;30146;52.268;20.944;2022-09-09T14:47:22;46.80;;;22.50;;
44440;SDS011;30146;52.268;20.944;2022-09-09T14:49:54;41.50;;;21.90;;
44440;SDS011;30146;52.268;20.944;2022-09-09T14:52:25;44.40;;;22.60;;
44440;SDS011;30146;52.268;20.944;2022-09-09T14:54:57;42.60;;;22.10;;
44440;SDS011;30146;52.268;20.944;2022-09-09T14:57:28;49.50;;;22.00;;
44440;SDS011;30146;52.268;20.944;2022-09-09T15:00:00;45.90;;;22.90;;
44440;SDS011;30146;52.268;20.944;2022-09-09T15:02:32;41.80;;;21.90;;
44440;SDS011;30146;52.268;20.944;2022-09-09T15:05:04;50.40;;;23.10;;
44440;SDS011;30146;52.268;20.944;2022-09-09T15:07:36;57.80;;;23.00;;
44440;SDS011;30146;52.268;20.944;2022-09-09T15:10:07;44.40;;;22.60;;
44440;SDS011;30146;52.268;20.944;2022-09-09T15:12:39;44.30;;;22.70;;
44440;SDS011;30146;52.268;20.944;2022-09-09T15:15:10;47.60;;;23.90;;
44440;SDS011;30146;52.268;20.944;2022-09-09T15:17:41;49.50;;;24.10;;
44440;SDS011;30146;52.268;20.944;2022-09-09T15:20:12;48.40;;;24.00;;
44440;SDS011;30146;52.268;20.944;2022-09-09T15:22:47;47.10;;;23.60;;
44440;SDS011;30146;52.268;20.944;2022-09-09T15:25:20;51.80;;;25.50;;